sensor_id;sensor_type;location;lat;lon;timestamp;P1;durP1;ratioP1;P2;durP2;ratioP2
49458;SDS011;35354;51.296;16.924;2022-08-14T00:02:13;12.98;;;11.85;;
49458;SDS011;35354;51.296;16.924;2022-08-14T00:04:39;13.23;;;11.98;;
49458;SDS011;35354;51.296;16.924;2022-08-14T00:07:05;14.10;;;12.23;;
49458;SDS011;35354;51.296;16.924;2022-08-14T00:09:30;13.85;;;12.43;;
49458;SDS011;35354;51.296;16.924;2022-08-14T00:11:56;13.68;;;12.27;;
49458;SDS011;35354;51.296;16.924;2022-08-14T00:14:22;13.57;;;12.18;;
49458;SDS011;35354;51.296;16.924;2022-08-14T00:16:48;12.40;;;11.10;;
49458;SDS011;35354;51.296;16.924;2022-08-14T00:19:14;22.15;;;12.23;;
49458;SDS011;35354;51.296;16.924;2022-08-14T00:21:40;13.27;;;12.00;;
49458;SDS011;35354;51.296;16.924;2022-08-14T00:24:05;14.15;;;12.27;;
49458;SDS011;35354;51.296;16.924;2022-08-14T00:26:31;13.38;;;12.07;;
49458;SDS011;35354;51.296;16.924;2022-08-14T00:28:56;14.75;;;13.25;;
49458;SDS011;35354;51.296;16.924;2022-08-14T00:31:21;13.98;;;12.68;;
49458;SDS011;35354;51.296;16.924;2022-08-14T00:33:47;12.50;;;11.25;;
49458;SDS011;35354;51.296;16.924;2022-08-14T00:36:13;13.00;;;11.75;;
49458;SDS011;35354;51.296;16.924;2022-08-14T00:38:38;12.95;;;11.75;;
49458;SDS011;35354;51.296;16.924;2022-08-14T00:41:04;14.95;;;13.45;;
49458;SDS011;35354;51.296;16.924;2022-08-14T00:43:32;13.95;;;12.65;;
49458;SDS011;35354;51.296;16.924;2022-08-14T00:46:02;15.05;;;12.77;;
49458;SDS011;35354;51.296;16.924;2022-08-14T00:48:29;13.43;;;12.07;;
49458;SDS011;35354;51.296;16.924;2022-08-14T00:50:54;14.18;;;12.73;;
49458;SDS011;35354;51.296;16.924;2022-08-14T00:53:19;14.10;;;12.68;;
49458;SDS011;35354;51.296;16.924;2022-08-14T00:55:47;14.40;;;13.00;;
49458;SDS011;35354;51.296;16.924;2022-08-14T00:58:15;15.80;;;13.93;;
49458;SDS011;35354;51.296;16.924;2022-08-14T01:00:56;15.85;;;14.32;;
49458;SDS011;35354;51.296;16.924;2022-08-14T01:03:23;15.63;;;14.02;;
49458;SDS011;35354;51.296;16.924;2022-08-14T01:05:50;15.57;;;14.07;;
49458;SDS011;35354;51.296;16.924;2022-08-14T01:08:17;15.23;;;13.75;;
49458;SDS011;35354;51.296;16.924;2022-08-14T01:10:48;16.25;;;14.18;;
49458;SDS011;35354;51.296;16.924;2022-08-14T01:13:15;15.88;;;14.40;;
49458;SDS011;35354;51.296;16.924;2022-08-14T01:15:43;16.08;;;14.57;;
49458;SDS011;35354;51.296;16.924;2022-08-14T01:18:13;17.80;;;14.25;;
49458;SDS011;35354;51.296;16.924;2022-08-14T01:20:57;17.45;;;14.85;;
49458;SDS011;35354;51.296;16.924;2022-08-14T01:23:49;17.43;;;13.77;;
49458;SDS011;35354;51.296;16.924;2022-08-14T01:28:46;16.40;;;14.82;;
49458;SDS011;35354;51.296;16.924;2022-08-14T01:31:16;17.67;;;15.82;;
49458;SDS011;35354;51.296;16.924;2022-08-14T01:36:12;17.88;;;16.13;;
49458;SDS011;35354;51.296;16.924;2022-08-14T01:38:39;17.52;;;15.77;;
49458;SDS011;35354;51.296;16.924;2022-08-14T01:41:08;18.30;;;16.30;;
49458;SDS011;35354;51.296;16.924;2022-08-14T01:43:43;18.20;;;16.33;;
49458;SDS011;35354;51.296;16.924;2022-08-14T01:46:12;18.58;;;16.70;;
49458;SDS011;35354;51.296;16.924;2022-08-14T01:48:39;18.58;;;16.42;;
49458;SDS011;35354;51.296;16.924;2022-08-14T01:51:08;17.42;;;15.68;;
49458;SDS011;35354;51.296;16.924;2022-08-14T01:53:36;15.85;;;14.43;;
49458;SDS011;35354;51.296;16.924;2022-08-14T01:56:03;17.83;;;15.95;;
49458;SDS011;35354;51.296;16.924;2022-08-14T01:58:29;20.10;;;17.27;;
49458;SDS011;35354;51.296;16.924;2022-08-14T02:00:55;18.52;;;16.70;;
49458;SDS011;35354;51.296;16.924;2022-08-14T02:03:27;19.95;;;17.95;;
49458;SDS011;35354;51.296;16.924;2022-08-14T02:05:59;19.48;;;17.48;;
49458;SDS011;35354;51.296;16.924;2022-08-14T02:08:26;19.58;;;17.67;;
49458;SDS011;35354;51.296;16.924;2022-08-14T02:10:54;19.67;;;17.63;;
49458;SDS011;35354;51.296;16.924;2022-08-14T02:13:43;19.48;;;17.65;;
49458;SDS011;35354;51.296;16.924;2022-08-14T02:16:10;21.30;;;18.77;;
49458;SDS011;35354;51.296;16.924;2022-08-14T02:18:36;21.73;;;19.52;;
49458;SDS011;35354;51.296;16.924;2022-08-14T02:21:02;20.52;;;18.30;;
49458;SDS011;35354;51.296;16.924;2022-08-14T02:23:29;22.45;;;20.20;;
49458;SDS011;35354;51.296;16.924;2022-08-14T02:25:55;21.90;;;19.70;;
49458;SDS011;35354;51.296;16.924;2022-08-14T02:28:23;23.65;;;21.42;;
49458;SDS011;35354;51.296;16.924;2022-08-14T02:30:49;22.90;;;20.70;;
49458;SDS011;35354;51.296;16.924;2022-08-14T02:33:15;23.38;;;21.08;;
49458;SDS011;35354;51.296;16.924;2022-08-14T02:35:41;23.00;;;20.85;;
49458;SDS011;35354;51.296;16.924;2022-08-14T02:38:07;23.60;;;21.13;;
49458;SDS011;35354;51.296;16.924;2022-08-14T02:40:34;23.63;;;21.30;;
49458;SDS011;35354;51.296;16.924;2022-08-14T02:43:01;24.15;;;21.67;;
49458;SDS011;35354;51.296;16.924;2022-08-14T02:45:28;23.98;;;21.60;;
49458;SDS011;35354;51.296;16.924;2022-08-14T02:47:56;23.55;;;21.25;;
49458;SDS011;35354;51.296;16.924;2022-08-14T02:50:22;22.00;;;19.77;;
49458;SDS011;35354;51.296;16.924;2022-08-14T02:52:47;24.45;;;22.10;;
49458;SDS011;35354;51.296;16.924;2022-08-14T02:55:13;24.17;;;21.85;;
49458;SDS011;35354;51.296;16.924;2022-08-14T02:57:38;23.98;;;21.63;;
49458;SDS011;35354;51.296;16.924;2022-08-14T03:00:04;24.92;;;22.48;;
49458;SDS011;35354;51.296;16.924;2022-08-14T03:02:30;24.13;;;21.83;;
49458;SDS011;35354;51.296;16.924;2022-08-14T03:04:57;25.48;;;23.08;;
49458;SDS011;35354;51.296;16.924;2022-08-14T03:07:22;23.13;;;21.00;;
49458;SDS011;35354;51.296;16.924;2022-08-14T03:09:49;22.13;;;19.92;;
49458;SDS011;35354;51.296;16.924;2022-08-14T03:12:15;21.90;;;19.80;;
49458;SDS011;35354;51.296;16.924;2022-08-14T03:14:40;23.35;;;21.02;;
49458;SDS011;35354;51.296;16.924;2022-08-14T03:17:12;21.30;;;19.40;;
49458;SDS011;35354;51.296;16.924;2022-08-14T03:19:39;22.30;;;20.20;;
49458;SDS011;35354;51.296;16.924;2022-08-14T03:22:04;21.10;;;18.95;;
49458;SDS011;35354;51.296;16.924;2022-08-14T03:24:30;23.05;;;20.75;;
49458;SDS011;35354;51.296;16.924;2022-08-14T03:26:55;22.48;;;20.30;;
49458;SDS011;35354;51.296;16.924;2022-08-14T03:29:20;21.35;;;19.35;;
49458;SDS011;35354;51.296;16.924;2022-08-14T03:31:46;22.05;;;19.85;;
49458;SDS011;35354;51.296;16.924;2022-08-14T03:34:15;22.23;;;19.63;;
49458;SDS011;35354;51.296;16.924;2022-08-14T03:36:40;23.05;;;20.88;;
49458;SDS011;35354;51.296;16.924;2022-08-14T03:39:08;23.05;;;20.85;;
49458;SDS011;35354;51.296;16.924;2022-08-14T03:41:35;22.35;;;20.25;;
49458;SDS011;35354;51.296;16.924;2022-08-14T03:44:01;21.58;;;19.48;;
49458;SDS011;35354;51.296;16.924;2022-08-14T03:46:29;21.92;;;19.73;;
49458;SDS011;35354;51.296;16.924;2022-08-14T03:48:56;20.33;;;18.35;;
49458;SDS011;35354;51.296;16.924;2022-08-14T03:51:25;18.77;;;17.00;;
49458;SDS011;35354;51.296;16.924;2022-08-14T03:53:53;18.23;;;16.45;;
49458;SDS011;35354;51.296;16.924;2022-08-14T03:56:21;19.42;;;15.70;;
49458;SDS011;35354;51.296;16.924;2022-08-14T03:58:48;17.00;;;15.35;;
49458;SDS011;35354;51.296;16.924;2022-08-14T04:01:16;17.70;;;16.10;;
49458;SDS011;35354;51.296;16.924;2022-08-14T04:03:46;17.40;;;15.60;;
49458;SDS011;35354;51.296;16.924;2022-08-14T04:06:12;18.23;;;16.38;;
49458;SDS011;35354;51.296;16.924;2022-08-14T04:08:38;15.75;;;14.25;;
49458;SDS011;35354;51.296;16.924;2022-08-14T04:11:05;17.25;;;15.40;;
49458;SDS011;35354;51.296;16.924;2022-08-14T04:13:32;17.23;;;15.60;;
49458;SDS011;35354;51.296;16.924;2022-08-14T04:15:59;16.75;;;14.63;;
49458;SDS011;35354;51.296;16.924;2022-08-14T04:18:33;15.65;;;14.15;;
49458;SDS011;35354;51.296;16.924;2022-08-14T04:21:03;17.23;;;13.68;;
49458;SDS011;35354;51.296;16.924;2022-08-14T04:23:29;14.63;;;13.25;;
49458;SDS011;35354;51.296;16.924;2022-08-14T04:25:56;15.68;;;14.27;;
49458;SDS011;35354;51.296;16.924;2022-08-14T04:28:21;14.18;;;12.70;;
49458;SDS011;35354;51.296;16.924;2022-08-14T04:30:46;15.43;;;13.93;;
49458;SDS011;35354;51.296;16.924;2022-08-14T04:33:12;14.65;;;13.15;;
49458;SDS011;35354;51.296;16.924;2022-08-14T04:35:38;14.80;;;13.27;;
49458;SDS011;35354;51.296;16.924;2022-08-14T04:38:08;15.63;;;13.93;;
49458;SDS011;35354;51.296;16.924;2022-08-14T04:40:53;12.13;;;10.95;;
49458;SDS011;35354;51.296;16.924;2022-08-14T04:43:38;13.43;;;11.85;;
49458;SDS011;35354;51.296;16.924;2022-08-14T04:46:11;14.18;;;12.77;;
49458;SDS011;35354;51.296;16.924;2022-08-14T04:48:40;13.00;;;11.85;;
49458;SDS011;35354;51.296;16.924;2022-08-14T04:51:10;12.75;;;11.52;;
49458;SDS011;35354;51.296;16.924;2022-08-14T04:53:38;12.18;;;10.98;;
49458;SDS011;35354;51.296;16.924;2022-08-14T04:56:08;12.27;;;11.07;;
49458;SDS011;35354;51.296;16.924;2022-08-14T04:58:40;13.32;;;11.15;;
49458;SDS011;35354;51.296;16.924;2022-08-14T05:01:07;12.38;;;11.18;;
49458;SDS011;35354;51.296;16.924;2022-08-14T05:03:34;12.57;;;11.35;;
49458;SDS011;35354;51.296;16.924;2022-08-14T05:06:05;12.73;;;11.55;;
49458;SDS011;35354;51.296;16.924;2022-08-14T05:08:32;15.45;;;13.23;;
49458;SDS011;35354;51.296;16.924;2022-08-14T05:10:59;14.57;;;13.27;;
49458;SDS011;35354;51.296;16.924;2022-08-14T05:13:27;17.30;;;14.27;;
49458;SDS011;35354;51.296;16.924;2022-08-14T05:15:54;18.15;;;14.48;;
49458;SDS011;35354;51.296;16.924;2022-08-14T05:18:24;17.98;;;16.17;;
49458;SDS011;35354;51.296;16.924;2022-08-14T05:20:54;18.67;;;16.85;;
49458;SDS011;35354;51.296;16.924;2022-08-14T05:23:22;17.98;;;16.23;;
49458;SDS011;35354;51.296;16.924;2022-08-14T05:25:49;19.25;;;17.45;;
49458;SDS011;35354;51.296;16.924;2022-08-14T05:28:20;20.42;;;18.42;;
49458;SDS011;35354;51.296;16.924;2022-08-14T05:30:47;21.63;;;19.25;;
49458;SDS011;35354;51.296;16.924;2022-08-14T05:33:16;20.90;;;18.95;;
49458;SDS011;35354;51.296;16.924;2022-08-14T05:35:45;20.98;;;18.98;;
49458;SDS011;35354;51.296;16.924;2022-08-14T05:38:13;22.30;;;20.08;;
49458;SDS011;35354;51.296;16.924;2022-08-14T05:40:41;23.38;;;20.20;;
49458;SDS011;35354;51.296;16.924;2022-08-14T05:43:07;22.50;;;20.38;;
49458;SDS011;35354;51.296;16.924;2022-08-14T05:45:32;21.33;;;19.25;;
49458;SDS011;35354;51.296;16.924;2022-08-14T05:47:59;23.45;;;21.25;;
49458;SDS011;35354;51.296;16.924;2022-08-14T05:50:25;23.70;;;20.58;;
49458;SDS011;35354;51.296;16.924;2022-08-14T05:52:51;23.75;;;21.42;;
49458;SDS011;35354;51.296;16.924;2022-08-14T05:55:16;23.15;;;20.52;;
49458;SDS011;35354;51.296;16.924;2022-08-14T06:00:22;24.90;;;21.17;;
49458;SDS011;35354;51.296;16.924;2022-08-14T06:02:50;24.15;;;21.80;;
49458;SDS011;35354;51.296;16.924;2022-08-14T06:05:15;22.67;;;20.63;;
49458;SDS011;35354;51.296;16.924;2022-08-14T06:07:41;24.10;;;21.60;;
49458;SDS011;35354;51.296;16.924;2022-08-14T06:10:07;23.98;;;21.58;;
49458;SDS011;35354;51.296;16.924;2022-08-14T06:12:33;24.45;;;22.08;;
49458;SDS011;35354;51.296;16.924;2022-08-14T06:14:59;25.02;;;22.50;;
49458;SDS011;35354;51.296;16.924;2022-08-14T06:17:25;26.15;;;23.45;;
49458;SDS011;35354;51.296;16.924;2022-08-14T06:19:51;25.48;;;22.77;;
49458;SDS011;35354;51.296;16.924;2022-08-14T06:22:17;25.58;;;23.08;;
49458;SDS011;35354;51.296;16.924;2022-08-14T06:24:42;25.10;;;22.70;;
49458;SDS011;35354;51.296;16.924;2022-08-14T06:27:08;23.75;;;21.42;;
49458;SDS011;35354;51.296;16.924;2022-08-14T06:29:33;26.38;;;23.65;;
49458;SDS011;35354;51.296;16.924;2022-08-14T06:32:00;25.38;;;22.85;;
49458;SDS011;35354;51.296;16.924;2022-08-14T06:34:26;24.50;;;22.17;;
49458;SDS011;35354;51.296;16.924;2022-08-14T06:36:51;25.30;;;22.75;;
49458;SDS011;35354;51.296;16.924;2022-08-14T06:39:17;25.88;;;23.48;;
49458;SDS011;35354;51.296;16.924;2022-08-14T06:41:42;24.98;;;22.33;;
49458;SDS011;35354;51.296;16.924;2022-08-14T06:44:08;25.13;;;22.50;;
49458;SDS011;35354;51.296;16.924;2022-08-14T06:46:34;25.80;;;23.40;;
49458;SDS011;35354;51.296;16.924;2022-08-14T06:48:59;24.75;;;21.85;;
49458;SDS011;35354;51.296;16.924;2022-08-14T06:51:25;27.15;;;24.55;;
49458;SDS011;35354;51.296;16.924;2022-08-14T06:53:50;23.90;;;21.58;;
49458;SDS011;35354;51.296;16.924;2022-08-14T06:56:15;26.10;;;23.60;;
49458;SDS011;35354;51.296;16.924;2022-08-14T06:58:41;26.00;;;23.45;;
49458;SDS011;35354;51.296;16.924;2022-08-14T07:01:06;28.17;;;25.38;;
49458;SDS011;35354;51.296;16.924;2022-08-14T07:03:50;27.23;;;24.50;;
49458;SDS011;35354;51.296;16.924;2022-08-14T07:06:34;26.58;;;24.08;;
49458;SDS011;35354;51.296;16.924;2022-08-14T07:09:00;27.50;;;24.88;;
49458;SDS011;35354;51.296;16.924;2022-08-14T07:11:25;27.88;;;25.08;;
49458;SDS011;35354;51.296;16.924;2022-08-14T07:13:51;25.40;;;23.02;;
49458;SDS011;35354;51.296;16.924;2022-08-14T07:16:17;27.70;;;24.77;;
49458;SDS011;35354;51.296;16.924;2022-08-14T07:18:42;26.85;;;24.45;;
49458;SDS011;35354;51.296;16.924;2022-08-14T07:21:09;26.23;;;23.55;;
49458;SDS011;35354;51.296;16.924;2022-08-14T07:23:34;26.85;;;24.25;;
49458;SDS011;35354;51.296;16.924;2022-08-14T07:26:01;25.77;;;23.08;;
49458;SDS011;35354;51.296;16.924;2022-08-14T07:28:31;24.98;;;22.55;;
49458;SDS011;35354;51.296;16.924;2022-08-14T07:30:59;28.02;;;24.98;;
49458;SDS011;35354;51.296;16.924;2022-08-14T07:33:30;29.23;;;24.50;;
49458;SDS011;35354;51.296;16.924;2022-08-14T07:36:02;26.25;;;23.38;;
49458;SDS011;35354;51.296;16.924;2022-08-14T07:38:30;26.45;;;23.95;;
49458;SDS011;35354;51.296;16.924;2022-08-14T07:40:55;24.38;;;21.88;;
49458;SDS011;35354;51.296;16.924;2022-08-14T07:43:21;24.88;;;22.35;;
49458;SDS011;35354;51.296;16.924;2022-08-14T07:45:47;25.55;;;22.90;;
49458;SDS011;35354;51.296;16.924;2022-08-14T07:48:13;27.23;;;24.60;;
49458;SDS011;35354;51.296;16.924;2022-08-14T07:50:38;24.25;;;21.73;;
49458;SDS011;35354;51.296;16.924;2022-08-14T07:53:04;25.92;;;23.42;;
49458;SDS011;35354;51.296;16.924;2022-08-14T07:55:33;26.40;;;23.58;;
49458;SDS011;35354;51.296;16.924;2022-08-14T07:57:59;27.33;;;23.45;;
49458;SDS011;35354;51.296;16.924;2022-08-14T08:00:25;26.25;;;23.65;;
49458;SDS011;35354;51.296;16.924;2022-08-14T08:02:52;27.05;;;23.30;;
49458;SDS011;35354;51.296;16.924;2022-08-14T08:05:19;26.08;;;23.55;;
49458;SDS011;35354;51.296;16.924;2022-08-14T08:07:48;27.77;;;25.10;;
49458;SDS011;35354;51.296;16.924;2022-08-14T08:10:16;28.02;;;25.42;;
49458;SDS011;35354;51.296;16.924;2022-08-14T08:13:00;29.75;;;26.75;;
49458;SDS011;35354;51.296;16.924;2022-08-14T08:15:30;28.70;;;25.70;;
49458;SDS011;35354;51.296;16.924;2022-08-14T08:17:58;28.35;;;25.52;;
49458;SDS011;35354;51.296;16.924;2022-08-14T08:20:27;31.48;;;28.38;;
49458;SDS011;35354;51.296;16.924;2022-08-14T08:22:54;29.25;;;26.63;;
49458;SDS011;35354;51.296;16.924;2022-08-14T08:25:23;31.27;;;27.92;;
49458;SDS011;35354;51.296;16.924;2022-08-14T08:30:25;30.10;;;26.88;;
49458;SDS011;35354;51.296;16.924;2022-08-14T08:32:53;29.17;;;26.27;;
49458;SDS011;35354;51.296;16.924;2022-08-14T08:35:21;26.63;;;24.10;;
49458;SDS011;35354;51.296;16.924;2022-08-14T08:37:48;23.35;;;21.15;;
49458;SDS011;35354;51.296;16.924;2022-08-14T08:40:25;26.73;;;24.27;;
49458;SDS011;35354;51.296;16.924;2022-08-14T08:42:52;24.77;;;22.38;;
49458;SDS011;35354;51.296;16.924;2022-08-14T08:45:18;26.17;;;23.48;;
49458;SDS011;35354;51.296;16.924;2022-08-14T08:47:45;27.67;;;24.98;;
49458;SDS011;35354;51.296;16.924;2022-08-14T08:50:19;26.42;;;23.80;;
49458;SDS011;35354;51.296;16.924;2022-08-14T08:52:51;27.08;;;24.35;;
49458;SDS011;35354;51.296;16.924;2022-08-14T08:58:06;24.85;;;22.55;;
49458;SDS011;35354;51.296;16.924;2022-08-14T09:00:34;24.35;;;22.15;;
49458;SDS011;35354;51.296;16.924;2022-08-14T09:03:11;24.60;;;22.10;;
49458;SDS011;35354;51.296;16.924;2022-08-14T09:05:49;24.13;;;21.80;;
49458;SDS011;35354;51.296;16.924;2022-08-14T09:08:22;23.60;;;21.25;;
49458;SDS011;35354;51.296;16.924;2022-08-14T09:10:49;23.63;;;21.35;;
49458;SDS011;35354;51.296;16.924;2022-08-14T09:13:16;20.20;;;18.30;;
49458;SDS011;35354;51.296;16.924;2022-08-14T09:15:45;17.90;;;16.30;;
49458;SDS011;35354;51.296;16.924;2022-08-14T09:18:13;21.27;;;19.25;;
49458;SDS011;35354;51.296;16.924;2022-08-14T09:20:41;19.02;;;17.33;;
49458;SDS011;35354;51.296;16.924;2022-08-14T09:23:07;20.17;;;18.25;;
49458;SDS011;35354;51.296;16.924;2022-08-14T09:25:34;18.05;;;16.15;;
49458;SDS011;35354;51.296;16.924;2022-08-14T09:28:00;16.88;;;15.18;;
49458;SDS011;35354;51.296;16.924;2022-08-14T09:30:26;13.93;;;12.60;;
49458;SDS011;35354;51.296;16.924;2022-08-14T09:35:48;13.48;;;12.18;;
49458;SDS011;35354;51.296;16.924;2022-08-14T09:41:04;15.55;;;14.00;;
49458;SDS011;35354;51.296;16.924;2022-08-14T09:46:39;15.73;;;13.27;;
49458;SDS011;35354;51.296;16.924;2022-08-14T09:49:15;14.80;;;13.48;;
49458;SDS011;35354;51.296;16.924;2022-08-14T09:51:41;14.10;;;12.70;;
49458;SDS011;35354;51.296;16.924;2022-08-14T09:54:08;20.48;;;13.75;;
49458;SDS011;35354;51.296;16.924;2022-08-14T09:56:46;14.65;;;13.25;;
49458;SDS011;35354;51.296;16.924;2022-08-14T09:59:15;15.52;;;13.93;;
49458;SDS011;35354;51.296;16.924;2022-08-14T10:01:46;13.70;;;11.93;;
49458;SDS011;35354;51.296;16.924;2022-08-14T10:04:24;13.45;;;12.05;;
49458;SDS011;35354;51.296;16.924;2022-08-14T10:06:52;13.68;;;12.38;;
49458;SDS011;35354;51.296;16.924;2022-08-14T10:09:18;15.23;;;13.68;;
49458;SDS011;35354;51.296;16.924;2022-08-14T10:11:56;15.32;;;13.85;;
49458;SDS011;35354;51.296;16.924;2022-08-14T10:14:23;16.63;;;12.52;;
49458;SDS011;35354;51.296;16.924;2022-08-14T10:16:55;12.73;;;11.45;;
49458;SDS011;35354;51.296;16.924;2022-08-14T10:19:22;14.90;;;13.02;;
49458;SDS011;35354;51.296;16.924;2022-08-14T10:21:58;15.95;;;14.32;;
49458;SDS011;35354;51.296;16.924;2022-08-14T10:24:43;15.30;;;13.43;;
49458;SDS011;35354;51.296;16.924;2022-08-14T10:27:20;13.50;;;12.13;;
49458;SDS011;35354;51.296;16.924;2022-08-14T10:29:49;12.65;;;11.40;;
49458;SDS011;35354;51.296;16.924;2022-08-14T10:32:18;14.98;;;13.55;;
49458;SDS011;35354;51.296;16.924;2022-08-14T10:34:46;14.43;;;13.13;;
49458;SDS011;35354;51.296;16.924;2022-08-14T10:37:13;13.65;;;12.10;;
49458;SDS011;35354;51.296;16.924;2022-08-14T10:42:11;13.55;;;12.18;;
49458;SDS011;35354;51.296;16.924;2022-08-14T10:44:42;13.50;;;11.95;;
49458;SDS011;35354;51.296;16.924;2022-08-14T10:47:13;14.98;;;10.85;;
49458;SDS011;35354;51.296;16.924;2022-08-14T10:49:43;12.00;;;10.75;;
49458;SDS011;35354;51.296;16.924;2022-08-14T10:52:24;13.13;;;11.88;;
49458;SDS011;35354;51.296;16.924;2022-08-14T10:54:51;12.95;;;10.90;;
49458;SDS011;35354;51.296;16.924;2022-08-14T10:57:21;13.00;;;10.95;;
49458;SDS011;35354;51.296;16.924;2022-08-14T10:59:50;11.57;;;10.43;;
49458;SDS011;35354;51.296;16.924;2022-08-14T11:04:58;10.70;;;9.68;;
49458;SDS011;35354;51.296;16.924;2022-08-14T11:07:27;13.77;;;10.18;;
49458;SDS011;35354;51.296;16.924;2022-08-14T11:09:57;13.40;;;9.68;;
49458;SDS011;35354;51.296;16.924;2022-08-14T11:12:24;10.95;;;9.82;;
49458;SDS011;35354;51.296;16.924;2022-08-14T11:17:16;12.70;;;8.95;;
49458;SDS011;35354;51.296;16.924;2022-08-14T11:19:42;12.10;;;10.85;;
49458;SDS011;35354;51.296;16.924;2022-08-14T11:22:09;12.20;;;9.98;;
49458;SDS011;35354;51.296;16.924;2022-08-14T11:24:35;42.50;;;26.92;;
49458;SDS011;35354;51.296;16.924;2022-08-14T11:27:03;15.30;;;11.00;;
49458;SDS011;35354;51.296;16.924;2022-08-14T11:29:29;17.05;;;11.70;;
49458;SDS011;35354;51.296;16.924;2022-08-14T11:31:55;15.63;;;11.77;;
49458;SDS011;35354;51.296;16.924;2022-08-14T11:34:23;15.10;;;10.98;;
49458;SDS011;35354;51.296;16.924;2022-08-14T11:36:48;16.65;;;13.02;;
49458;SDS011;35354;51.296;16.924;2022-08-14T11:39:17;15.80;;;12.25;;
49458;SDS011;35354;51.296;16.924;2022-08-14T11:41:44;15.82;;;11.13;;
49458;SDS011;35354;51.296;16.924;2022-08-14T11:44:10;11.43;;;10.18;;
49458;SDS011;35354;51.296;16.924;2022-08-14T11:46:35;15.00;;;11.93;;
49458;SDS011;35354;51.296;16.924;2022-08-14T11:49:01;13.57;;;12.27;;
49458;SDS011;35354;51.296;16.924;2022-08-14T11:51:26;18.13;;;13.65;;
49458;SDS011;35354;51.296;16.924;2022-08-14T11:54:10;13.88;;;12.43;;
49458;SDS011;35354;51.296;16.924;2022-08-14T11:56:38;16.40;;;14.80;;
49458;SDS011;35354;51.296;16.924;2022-08-14T11:59:13;14.38;;;12.95;;
49458;SDS011;35354;51.296;16.924;2022-08-14T12:01:43;16.35;;;14.65;;
49458;SDS011;35354;51.296;16.924;2022-08-14T12:04:17;18.15;;;14.25;;
49458;SDS011;35354;51.296;16.924;2022-08-14T12:06:53;17.23;;;13.73;;
49458;SDS011;35354;51.296;16.924;2022-08-14T12:09:30;16.00;;;12.85;;
49458;SDS011;35354;51.296;16.924;2022-08-14T12:11:58;13.93;;;10.88;;
49458;SDS011;35354;51.296;16.924;2022-08-14T12:14:24;19.40;;;15.77;;
49458;SDS011;35354;51.296;16.924;2022-08-14T12:19:49;13.07;;;11.73;;
49458;SDS011;35354;51.296;16.924;2022-08-14T12:22:30;12.90;;;10.95;;
49458;SDS011;35354;51.296;16.924;2022-08-14T12:25:06;12.07;;;10.57;;
49458;SDS011;35354;51.296;16.924;2022-08-14T12:27:41;12.35;;;10.43;;
49458;SDS011;35354;51.296;16.924;2022-08-14T12:30:08;11.48;;;9.10;;
49458;SDS011;35354;51.296;16.924;2022-08-14T12:32:39;11.82;;;9.05;;
49458;SDS011;35354;51.296;16.924;2022-08-14T12:35:06;13.18;;;11.85;;
49458;SDS011;35354;51.296;16.924;2022-08-14T12:37:32;10.57;;;8.32;;
49458;SDS011;35354;51.296;16.924;2022-08-14T12:40:13;10.05;;;9.05;;
49458;SDS011;35354;51.296;16.924;2022-08-14T12:42:40;11.10;;;9.57;;
49458;SDS011;35354;51.296;16.924;2022-08-14T12:45:07;9.93;;;8.93;;
49458;SDS011;35354;51.296;16.924;2022-08-14T12:47:36;10.57;;;9.25;;
49458;SDS011;35354;51.296;16.924;2022-08-14T12:50:02;13.30;;;10.63;;
49458;SDS011;35354;51.296;16.924;2022-08-14T12:52:39;13.48;;;10.25;;
49458;SDS011;35354;51.296;16.924;2022-08-14T12:55:08;11.80;;;10.48;;
49458;SDS011;35354;51.296;16.924;2022-08-14T12:57:36;11.27;;;9.82;;
49458;SDS011;35354;51.296;16.924;2022-08-14T13:02:42;12.68;;;11.10;;
49458;SDS011;35354;51.296;16.924;2022-08-14T13:05:09;11.65;;;10.40;;
49458;SDS011;35354;51.296;16.924;2022-08-14T13:07:37;12.43;;;9.73;;
49458;SDS011;35354;51.296;16.924;2022-08-14T13:10:13;9.82;;;8.82;;
49458;SDS011;35354;51.296;16.924;2022-08-14T13:12:39;11.32;;;10.18;;
49458;SDS011;35354;51.296;16.924;2022-08-14T13:15:06;12.23;;;11.02;;
49458;SDS011;35354;51.296;16.924;2022-08-14T13:17:34;11.80;;;10.68;;
49458;SDS011;35354;51.296;16.924;2022-08-14T13:20:05;11.95;;;10.23;;
49458;SDS011;35354;51.296;16.924;2022-08-14T13:22:32;11.80;;;10.07;;
49458;SDS011;35354;51.296;16.924;2022-08-14T13:24:58;11.48;;;10.40;;
49458;SDS011;35354;51.296;16.924;2022-08-14T13:27:26;11.73;;;9.18;;
49458;SDS011;35354;51.296;16.924;2022-08-14T13:29:54;11.93;;;10.73;;
49458;SDS011;35354;51.296;16.924;2022-08-14T13:32:25;11.07;;;9.90;;
49458;SDS011;35354;51.296;16.924;2022-08-14T13:34:52;11.77;;;10.68;;
49458;SDS011;35354;51.296;16.924;2022-08-14T13:37:18;12.50;;;11.02;;
49458;SDS011;35354;51.296;16.924;2022-08-14T13:39:48;13.07;;;11.85;;
49458;SDS011;35354;51.296;16.924;2022-08-14T13:42:18;12.48;;;10.70;;
49458;SDS011;35354;51.296;16.924;2022-08-14T13:44:47;13.05;;;11.77;;
49458;SDS011;35354;51.296;16.924;2022-08-14T13:47:28;12.35;;;11.25;;
49458;SDS011;35354;51.296;16.924;2022-08-14T13:49:56;13.13;;;11.82;;
49458;SDS011;35354;51.296;16.924;2022-08-14T13:52:24;12.85;;;11.25;;
49458;SDS011;35354;51.296;16.924;2022-08-14T13:54:52;13.63;;;12.23;;
49458;SDS011;35354;51.296;16.924;2022-08-14T13:57:18;15.98;;;13.48;;
49458;SDS011;35354;51.296;16.924;2022-08-14T13:59:45;15.98;;;14.38;;
49458;SDS011;35354;51.296;16.924;2022-08-14T14:02:12;17.20;;;14.30;;
49458;SDS011;35354;51.296;16.924;2022-08-14T14:04:41;16.90;;;15.20;;
49458;SDS011;35354;51.296;16.924;2022-08-14T14:07:10;13.98;;;12.52;;
49458;SDS011;35354;51.296;16.924;2022-08-14T14:09:37;19.15;;;14.90;;
49458;SDS011;35354;51.296;16.924;2022-08-14T14:12:07;15.18;;;13.65;;
49458;SDS011;35354;51.296;16.924;2022-08-14T14:14:34;15.02;;;13.63;;
49458;SDS011;35354;51.296;16.924;2022-08-14T14:17:01;14.57;;;13.15;;
49458;SDS011;35354;51.296;16.924;2022-08-14T14:19:28;13.88;;;12.48;;
49458;SDS011;35354;51.296;16.924;2022-08-14T14:21:57;13.45;;;12.15;;
49458;SDS011;35354;51.296;16.924;2022-08-14T14:24:27;15.93;;;14.40;;
49458;SDS011;35354;51.296;16.924;2022-08-14T14:26:54;17.23;;;14.05;;
49458;SDS011;35354;51.296;16.924;2022-08-14T14:29:24;13.77;;;11.73;;
49458;SDS011;35354;51.296;16.924;2022-08-14T14:31:50;12.10;;;10.90;;
49458;SDS011;35354;51.296;16.924;2022-08-14T14:34:16;10.75;;;9.55;;
49458;SDS011;35354;51.296;16.924;2022-08-14T14:36:42;10.90;;;8.85;;
49458;SDS011;35354;51.296;16.924;2022-08-14T14:39:08;9.88;;;8.77;;
49458;SDS011;35354;51.296;16.924;2022-08-14T14:41:38;10.77;;;9.68;;
49458;SDS011;35354;51.296;16.924;2022-08-14T14:44:08;10.23;;;9.15;;
49458;SDS011;35354;51.296;16.924;2022-08-14T14:46:39;12.25;;;10.95;;
49458;SDS011;35354;51.296;16.924;2022-08-14T14:49:08;14.35;;;13.05;;
49458;SDS011;35354;51.296;16.924;2022-08-14T14:51:38;15.18;;;13.60;;